KOBE/OBE METAR and TAF weather

Enter ICAO airport designator
Station Type Date Time Source
KOBE METAR 2021/05/15 23:55 UTC NOAA

KOBE 152355Z AUTO 05009KT CLR 23/13 A3009 RMK AO2


Station Type Date Time Source
KOBE Decoded METAR 2021/05/15 23:55 UTC NOAA

Okeechobee County Airport, FL, United States (KOBE) 27-15-60N 080-51-02W
May 15, 2021 - 07:55 PM EDT / 2021.05.15 2355 UTC
Wind: from the NE (050 degrees) at 10 MPH (9 KT):0
Sky conditions: clear
Temperature: 73 F (23 C)
Dew Point: 55 F (13 C)
Relative Humidity: 53%
Pressure (altimeter): 30.09 in. Hg (1018 hPa)
ob: KOBE 152355Z AUTO 05009KT CLR 23/13 A3009 RMK AO2
cycle: 0

Station Type Date Time Source
KOBE TAF UTC NOAA

Error!

Example: see airport list